Moscow, OH

18:28 EDT le 26 Mars 2015 (GMT -0400)
Cincinnati Municipal-Lunken | | Change Station
CLOSE
Current Station
Aéroport
Location: Cincinnati,
Altitude: 482 ft
Stations météo à proximité

Alt. 482 ft 39.10 °N, 84.42 °W | Updated 19 minutes ago

Couvert
Couvert
43 ° F
Paraît 38 ° F
N
8
Vent Variable Vent de NO

Aujourd'hui
Haut(e) -- | Bas -- ° F
--% Risque de précip.
Hier
Haut(e) -- | Bas -- ° F
Precip. -- pouce
7:31 AM 7:54 PM
Lune montante, 46% visible
Pression 29.93 pouce
Visibilité 10.0 Miles terrestres
Nuages Nuages épars 1400 ft
Couvert 2300 ft
Refroidissement éolien 38 ° F
Point de rosée 37 ° F
Humidité 80%
Précipitations 0.59 pouce
Profondeur de la couche neigeuse Non disponible.
UV 0 sur 12
Pollen .70 sur 12
Qualité de l'air Non disponible.
Flu Activity Non disponible.
SPECI KLUK 262209Z 31007KT 10SM SCT014 OVC023 06/03 A2993 RMK AO2 T00610028

More Conditions Fewer Conditions

Pression 29.93 pouce
Visibilité 10.0 Miles terrestres
Nuages Nuages épars 1400 ft
Couvert 2300 ft
Refroidissement éolien 38 ° F
Point de rosée 37 ° F
Humidité 80%
Précipitations 0.59 pouce
Profondeur de la couche neigeuse Non disponible.
UV 0 sur 12
Pollen .70 sur 12
Qualité de l'air Non disponible.
Flu Activity Non disponible.
SPECI KLUK 262209Z 31007KT 10SM SCT014 OVC023 06/03 A2993 RMK AO2 T00610028

More Conditions Fewer Conditions

10-Day Weather Forecast

Almanac

Astronomie

Mar. 26, 2015 Lever Coucher
Temps réel
Crépuscule civil
Crépuscule nautique
Crépuscule astronomique
Lune
Durée de lumière visible
Longueur du jour
Tomorrow will be .
, % of the Moon is Illuminated

Extrêmes aujourd'hui

State Highs State Lows

Community

WunderPhotos

Upload Photos

1,808,627 Photos téléchargées !

WunderBlogs® & News

Nearby

Qualité de l'air

  Qualité de l'air Indice de la qualité de l'air Polluant
Not available.

Épaisseur de neige

Station Depth Altitude

Activité sismique

Ville Distance Mag. Time & Date
Minimum magnitude displayed is 2.5.

Températures des eaux côtières

Lieu Température

Stations

Stations météo à proximité

Emplacement de la station Température Refroidissement éolien Point de rosée Humidité Vent Precip. Alt. Mise à jour Type